createdAt,value
2019-05-10T00:01:13.169Z,10.70
2019-05-10T00:04:02.194Z,10.80
2019-05-10T00:06:51.048Z,10.80
2019-05-10T00:09:21.309Z,10.80
2019-05-10T00:11:56.863Z,10.90
2019-05-10T00:14:29.365Z,11.00
2019-05-10T00:17:03.506Z,10.90
2019-05-10T00:19:34.656Z,10.80
2019-05-10T00:22:05.518Z,10.80
2019-05-10T00:24:37.483Z,10.80
2019-05-10T00:27:09.569Z,10.70
2019-05-10T00:29:41.067Z,11.00
2019-05-10T00:32:11.943Z,10.80
2019-05-10T00:34:42.873Z,10.90
2019-05-10T00:37:13.704Z,10.60
2019-05-10T00:39:44.553Z,10.40
2019-05-10T00:42:15.438Z,10.70
2019-05-10T00:44:46.517Z,10.80
2019-05-10T00:47:17.461Z,10.70
2019-05-10T00:49:48.533Z,10.80
2019-05-10T00:52:19.511Z,10.80
2019-05-10T00:54:50.363Z,10.70
2019-05-10T00:57:22.770Z,10.70
2019-05-10T00:59:53.638Z,10.80
2019-05-10T01:02:24.515Z,10.70
2019-05-10T01:04:55.457Z,10.90
2019-05-10T01:07:26.228Z,10.90
2019-05-10T01:09:58.127Z,10.80
2019-05-10T01:12:29.031Z,10.70
2019-05-10T01:14:59.821Z,10.80
2019-05-10T01:17:30.670Z,10.80
2019-05-10T01:20:01.623Z,10.80
2019-05-10T01:22:35.094Z,10.80
2019-05-10T01:25:07.455Z,10.90
2019-05-10T01:27:38.504Z,10.90
2019-05-10T01:30:09.559Z,10.90
2019-05-10T01:32:41.472Z,10.90
2019-05-10T01:35:12.444Z,10.90
2019-05-10T01:37:43.255Z,10.80
2019-05-10T01:40:14.298Z,10.80
2019-05-10T01:42:46.661Z,10.90
2019-05-10T01:45:17.711Z,10.80
2019-05-10T01:47:48.453Z,10.80
2019-05-10T01:50:19.414Z,10.80
2019-05-10T01:52:51.634Z,11.00
2019-05-10T01:55:22.474Z,11.00
2019-05-10T01:57:55.005Z,10.90
2019-05-10T02:00:25.719Z,11.00
2019-05-10T02:02:57.750Z,11.00
2019-05-10T02:05:28.610Z,10.80
2019-05-10T02:07:59.653Z,10.80
2019-05-10T02:10:30.462Z,10.80
2019-05-10T02:13:02.738Z,10.80
2019-05-10T02:15:33.591Z,10.80
2019-05-10T02:18:04.550Z,10.80
2019-05-10T02:20:35.282Z,10.80
2019-05-10T02:23:07.534Z,10.80
2019-05-10T02:25:38.468Z,10.70
2019-05-10T02:28:11.149Z,10.70
2019-05-10T02:30:42.162Z,10.70
2019-05-10T02:33:14.050Z,10.70
2019-05-10T02:35:45.035Z,10.70
2019-05-10T02:38:15.924Z,10.70
2019-05-10T02:40:46.862Z,10.60
2019-05-10T02:43:19.096Z,10.60
2019-05-10T02:45:49.966Z,10.60
2019-05-10T02:48:20.910Z,10.70
2019-05-10T02:50:51.814Z,10.60
2019-05-10T02:53:23.800Z,10.60
2019-05-10T02:55:54.950Z,10.60
2019-05-10T02:58:25.968Z,10.60
2019-05-10T03:00:59.857Z,10.60
2019-05-10T03:03:32.357Z,10.50
2019-05-10T03:06:04.208Z,10.60
2019-05-10T03:08:51.244Z,10.50
2019-05-10T03:11:22.158Z,10.50
2019-05-10T03:13:53.324Z,10.50
2019-05-10T03:16:24.392Z,10.50
2019-05-10T03:18:58.116Z,10.50
2019-05-10T03:21:31.972Z,10.50
2019-05-10T03:24:02.804Z,10.60
2019-05-10T03:26:50.181Z,10.60
2019-05-10T03:29:07.824Z,10.60
2019-05-10T03:31:38.797Z,10.60
2019-05-10T03:34:09.553Z,10.70
2019-05-10T03:36:40.565Z,10.70
2019-05-10T03:39:12.474Z,10.70
2019-05-10T03:41:43.362Z,10.70
2019-05-10T03:44:14.200Z,10.70
2019-05-10T03:46:45.048Z,10.60
2019-05-10T03:49:17.081Z,10.70
2019-05-10T03:51:47.936Z,10.70
2019-05-10T03:54:18.882Z,10.70
2019-05-10T03:57:10.319Z,10.60
2019-05-10T03:59:23.719Z,10.60
2019-05-10T04:01:54.723Z,10.50
2019-05-10T04:04:25.564Z,10.60
2019-05-10T04:06:56.433Z,10.60
2019-05-10T04:09:27.370Z,10.60
2019-05-10T04:11:58.307Z,10.60
2019-05-10T04:14:29.140Z,10.50
2019-05-10T04:17:00.177Z,10.60
2019-05-10T04:19:32.143Z,10.70
2019-05-10T04:22:03.142Z,10.70
2019-05-10T04:24:36.495Z,10.80
2019-05-10T04:27:06.630Z,10.80
2019-05-10T04:29:38.529Z,10.80
2019-05-10T04:32:10.684Z,10.90
2019-05-10T04:34:48.017Z,11.00
2019-05-10T04:37:20.279Z,11.00
2019-05-10T04:39:54.185Z,11.10
2019-05-10T04:42:25.299Z,11.20
2019-05-10T04:44:56.198Z,11.30
2019-05-10T04:47:27.079Z,11.40
2019-05-10T04:49:59.369Z,11.50
2019-05-10T04:52:30.171Z,11.60
2019-05-10T04:55:00.919Z,11.70
2019-05-10T04:57:47.950Z,11.80
2019-05-10T05:00:07.711Z,11.80
2019-05-10T05:02:39.269Z,11.90
2019-05-10T05:05:10.194Z,12.00
2019-05-10T05:07:40.968Z,12.10
2019-05-10T05:10:13.091Z,12.20
2019-05-10T05:12:43.955Z,12.30
2019-05-10T05:15:14.993Z,12.50
2019-05-10T05:17:46.001Z,12.70
2019-05-10T05:20:16.971Z,12.80
2019-05-10T05:22:48.011Z,13.00
2019-05-10T05:25:21.923Z,13.10
2019-05-10T05:28:06.499Z,13.20
2019-05-10T05:30:25.347Z,13.10
2019-05-10T05:32:57.089Z,13.30
2019-05-10T05:35:27.999Z,13.30
2019-05-10T05:37:58.896Z,13.20
2019-05-10T05:40:29.861Z,13.20
2019-05-10T05:43:02.655Z,13.10
2019-05-10T05:45:33.963Z,13.20
2019-05-10T05:48:05.787Z,13.20
2019-05-10T05:50:37.763Z,13.20
2019-05-10T05:53:08.581Z,13.30
2019-05-10T05:55:39.284Z,13.30
2019-05-10T05:58:25.179Z,13.40
2019-05-10T06:00:44.857Z,13.70
2019-05-10T06:03:19.428Z,14.20
2019-05-10T06:05:47.574Z,14.50
2019-05-10T06:08:24.973Z,14.50
2019-05-10T06:10:58.195Z,14.50
2019-05-10T06:13:30.189Z,14.80
2019-05-10T06:16:00.107Z,15.70
2019-05-10T06:18:30.046Z,15.60
2019-05-10T06:21:00.854Z,16.50
2019-05-10T06:23:35.322Z,16.60
2019-05-10T06:26:06.715Z,16.40
2019-05-10T06:28:57.416Z,17.50
2019-05-10T06:31:10.127Z,18.70
2019-05-10T06:33:45.053Z,18.60
2019-05-10T06:36:13.471Z,17.90
2019-05-10T06:38:44.559Z,17.60
2019-05-10T06:41:19.115Z,17.00
2019-05-10T06:43:51.482Z,16.70
2019-05-10T06:46:23.753Z,16.30
2019-05-10T06:48:53.510Z,16.00
2019-05-10T06:51:25.344Z,15.70
2019-05-10T06:53:56.282Z,15.80
2019-05-10T06:56:27.220Z,15.70
2019-05-10T06:59:12.233Z,15.60
2019-05-10T07:01:31.961Z,16.00
2019-05-10T07:04:02.945Z,16.80
2019-05-10T07:06:33.839Z,17.30
2019-05-10T07:09:06.127Z,17.20
2019-05-10T07:11:36.943Z,17.00
2019-05-10T07:14:07.886Z,16.60
2019-05-10T07:16:38.786Z,16.60
2019-05-10T07:19:09.652Z,16.10
2019-05-10T07:21:44.820Z,15.80
2019-05-10T07:24:18.489Z,16.10
2019-05-10T07:26:47.076Z,16.40
2019-05-10T07:29:29.572Z,17.60
2019-05-10T07:31:50.288Z,18.90
2019-05-10T07:34:21.122Z,21.90
2019-05-10T07:36:52.018Z,22.10
2019-05-10T07:39:22.994Z,20.90
2019-05-10T07:41:53.829Z,19.20
2019-05-10T07:44:24.834Z,17.80
2019-05-10T07:46:58.483Z,17.20
2019-05-10T07:49:30.347Z,17.40
2019-05-10T07:52:02.785Z,19.60
2019-05-10T07:54:37.347Z,21.10
2019-05-10T07:57:06.839Z,21.80
2019-05-10T07:59:50.122Z,22.00
2019-05-10T08:02:13.095Z,21.30
2019-05-10T08:04:42.594Z,20.60
2019-05-10T08:07:14.551Z,20.40
2019-05-10T08:09:46.746Z,20.50
2019-05-10T08:12:19.481Z,20.50
2019-05-10T08:14:53.512Z,19.50
2019-05-10T08:17:24.061Z,18.40
2019-05-10T08:19:54.909Z,17.40
2019-05-10T08:22:25.904Z,16.50
2019-05-10T08:24:56.768Z,15.80
2019-05-10T08:27:28.908Z,16.00
2019-05-10T08:30:28.989Z,16.60
2019-05-10T08:32:34.908Z,16.70
2019-05-10T08:35:16.332Z,16.60
2019-05-10T08:37:39.933Z,15.90
2019-05-10T08:40:12.776Z,15.90
2019-05-10T08:42:48.123Z,16.00
2019-05-10T08:45:15.948Z,16.20
2019-05-10T08:47:52.836Z,16.20
2019-05-10T08:50:34.625Z,16.40
2019-05-10T08:52:56.703Z,16.70
2019-05-10T08:55:25.436Z,17.20
2019-05-10T08:57:57.715Z,17.50
2019-05-10T09:00:41.672Z,17.20
2019-05-10T09:03:09.365Z,17.70
2019-05-10T09:05:34.430Z,18.00
2019-05-10T09:08:16.730Z,17.80
2019-05-10T09:10:38.823Z,16.80
2019-05-10T09:13:09.782Z,15.70
2019-05-10T09:15:51.225Z,15.50
2019-05-10T09:18:14.216Z,15.20
2019-05-10T09:20:45.129Z,15.40
2019-05-10T09:23:19.966Z,15.60
2019-05-10T09:25:48.333Z,16.00
2019-05-10T09:28:21.976Z,16.50
2019-05-10T09:31:00.326Z,16.60
2019-05-10T09:33:25.540Z,16.50
2019-05-10T09:35:59.126Z,16.70
2019-05-10T09:38:34.754Z,17.20
2019-05-10T09:41:02.625Z,17.40
2019-05-10T09:43:40.436Z,17.80
2019-05-10T09:46:11.475Z,17.60
2019-05-10T09:48:45.120Z,18.30
2019-05-10T09:51:19.122Z,18.90
2019-05-10T09:53:48.725Z,20.80
2019-05-10T09:56:19.595Z,23.50
2019-05-10T09:58:50.343Z,25.30
2019-05-10T10:01:21.916Z,24.90
2019-05-10T10:03:52.984Z,24.10
2019-05-10T10:06:23.848Z,23.50
2019-05-10T10:08:57.742Z,23.90
2019-05-10T10:11:28.796Z,24.20
2019-05-10T10:14:02.185Z,22.30
2019-05-10T10:16:33.439Z,22.60
2019-05-10T10:19:04.292Z,22.70
2019-05-10T10:21:38.881Z,23.50
2019-05-10T10:24:15.935Z,22.60
2019-05-10T10:26:42.783Z,22.90
2019-05-10T10:29:14.284Z,23.80
2019-05-10T10:31:54.568Z,24.20
2019-05-10T10:34:19.767Z,23.10
2019-05-10T10:36:51.146Z,23.50
2019-05-10T10:39:23.204Z,23.50
2019-05-10T10:41:57.176Z,23.40
2019-05-10T10:44:29.688Z,22.30
2019-05-10T10:47:00.894Z,21.80
2019-05-10T10:49:32.221Z,22.80
2019-05-10T10:52:05.818Z,23.40
2019-05-10T10:54:39.882Z,21.90
2019-05-10T10:57:10.515Z,21.30
2019-05-10T10:59:41.787Z,20.90
2019-05-10T11:02:31.423Z,21.70
2019-05-10T11:04:49.130Z,22.00
2019-05-10T11:07:20.566Z,22.00
2019-05-10T11:09:53.876Z,21.70
2019-05-10T11:12:24.460Z,21.50
2019-05-10T11:14:56.892Z,20.90
2019-05-10T11:17:28.205Z,20.60
2019-05-10T11:20:00.595Z,20.70
2019-05-10T11:22:31.870Z,20.40
2019-05-10T11:25:09.503Z,20.20
2019-05-10T11:27:37.076Z,20.40
2019-05-10T11:30:08.302Z,20.00
2019-05-10T11:32:41.607Z,20.40
2019-05-10T11:35:17.221Z,21.30
2019-05-10T11:37:45.668Z,23.70
2019-05-10T11:40:28.028Z,24.80
2019-05-10T11:42:51.094Z,23.50
2019-05-10T11:45:26.009Z,22.10
2019-05-10T11:47:59.131Z,20.50
2019-05-10T11:50:34.550Z,20.20
2019-05-10T11:53:06.893Z,20.10
2019-05-10T11:55:35.753Z,19.60
2019-05-10T11:58:08.709Z,19.20
2019-05-10T12:00:41.483Z,18.70
2019-05-10T12:03:18.342Z,18.60
2019-05-10T12:05:44.841Z,18.20
2019-05-10T12:08:16.250Z,18.20
2019-05-10T12:10:52.759Z,17.60
2019-05-10T12:13:24.716Z,17.70
2019-05-10T12:15:53.063Z,18.20
2019-05-10T12:21:08.683Z,21.20
2019-05-10T12:23:31.232Z,24.20
2019-05-10T12:26:31.279Z,18.80
2019-05-10T12:27:12.808Z,25.70
2019-05-10T12:28:35.864Z,25.90
2019-05-10T12:31:07.673Z,24.70
2019-05-10T12:33:42.038Z,23.00
2019-05-10T12:36:22.368Z,22.00
2019-05-10T12:38:46.450Z,20.80
2019-05-10T12:41:17.909Z,20.10
2019-05-10T12:43:51.491Z,19.90
2019-05-10T12:46:21.447Z,19.70
2019-05-10T12:48:55.528Z,19.40
2019-05-10T12:51:26.402Z,19.70
2019-05-10T12:53:57.167Z,19.20
2019-05-10T12:56:27.934Z,19.20
2019-05-10T12:59:00.240Z,19.50
2019-05-10T13:01:31.821Z,19.90
2019-05-10T13:04:13.764Z,20.10
2019-05-10T13:06:35.341Z,20.10
2019-05-10T13:09:07.768Z,19.60
2019-05-10T13:11:38.656Z,20.20
2019-05-10T13:14:10.542Z,20.60
2019-05-10T13:16:42.743Z,20.20
2019-05-10T13:19:19.974Z,20.50
2019-05-10T13:24:16.323Z,22.80
2019-05-10T13:26:47.213Z,23.00
2019-05-10T13:29:17.982Z,22.40
2019-05-10T13:31:48.947Z,21.60
2019-05-10T13:34:20.100Z,20.90
2019-05-10T13:36:50.843Z,20.30
2019-05-10T13:39:25.655Z,19.70
2019-05-10T13:41:57.083Z,19.70
2019-05-10T13:44:26.527Z,20.00
2019-05-10T13:46:58.690Z,19.40
2019-05-10T13:49:29.719Z,19.00
2019-05-10T13:52:00.632Z,18.90
2019-05-10T13:54:36.135Z,18.90
2019-05-10T13:57:05.191Z,18.50
2019-05-10T13:59:36.023Z,18.40
2019-05-10T14:02:07.783Z,18.50
2019-05-10T14:04:40.153Z,18.30
2019-05-10T14:07:12.188Z,18.00
2019-05-10T14:09:42.972Z,18.00
2019-05-10T14:12:16.165Z,17.90
2019-05-10T14:14:46.262Z,17.50
2019-05-10T14:17:17.017Z,17.80
2019-05-10T14:19:47.992Z,17.80
2019-05-10T14:22:18.868Z,17.70
2019-05-10T14:24:53.493Z,17.90
2019-05-10T14:27:22.180Z,17.70
2019-05-10T14:29:53.096Z,17.60
2019-05-10T14:32:24.057Z,17.20
2019-05-10T14:34:55.002Z,17.00
2019-05-10T14:37:25.889Z,16.80
2019-05-10T14:39:56.736Z,16.90
2019-05-10T14:42:31.090Z,16.50
2019-05-10T14:45:00.085Z,16.60
2019-05-10T14:47:32.286Z,16.30
2019-05-10T14:50:03.400Z,17.00
2019-05-10T14:52:34.148Z,17.20
2019-05-10T14:55:06.668Z,17.10
2019-05-10T14:57:38.861Z,16.90
2019-05-10T15:00:10.248Z,16.90
2019-05-10T15:02:40.975Z,17.80
2019-05-10T15:05:15.623Z,19.10
2019-05-10T15:07:45.011Z,19.40
2019-05-10T15:10:15.777Z,19.30
2019-05-10T15:12:47.681Z,19.30
2019-05-10T15:15:18.807Z,19.50
2019-05-10T15:17:55.252Z,18.90
2019-05-10T15:20:23.347Z,18.90
2019-05-10T15:22:54.285Z,19.10
2019-05-10T15:25:25.923Z,18.40
2019-05-10T15:28:00.394Z,17.70
2019-05-10T15:30:30.689Z,17.80
2019-05-10T15:33:01.410Z,17.60
2019-05-10T15:35:32.353Z,17.10
2019-05-10T15:38:04.479Z,17.20
2019-05-10T15:40:38.687Z,17.50
2019-05-10T15:43:10.513Z,17.40
2019-05-10T15:45:40.171Z,17.50
2019-05-10T15:48:12.313Z,17.60
2019-05-10T15:50:43.508Z,17.50
2019-05-10T15:53:19.333Z,17.20
2019-05-10T15:55:48.468Z,17.30
2019-05-10T15:58:19.557Z,17.20
2019-05-10T16:00:50.506Z,17.00
2019-05-10T16:03:22.503Z,17.00
2019-05-10T16:06:00.760Z,16.90
2019-05-10T16:08:30.181Z,16.70
2019-05-10T16:11:00.553Z,17.00
2019-05-10T16:13:31.344Z,16.30
2019-05-10T16:16:02.209Z,16.20
2019-05-10T16:18:39.913Z,16.20
2019-05-10T16:21:09.609Z,16.20
2019-05-10T16:23:41.354Z,16.50
2019-05-10T16:26:10.567Z,16.60
2019-05-10T16:28:42.232Z,16.90
2019-05-10T16:31:13.201Z,16.70
2019-05-10T16:33:48.257Z,16.60
2019-05-10T16:36:16.468Z,16.00
2019-05-10T16:38:48.537Z,15.90
2019-05-10T16:41:19.473Z,15.60
2019-05-10T16:43:51.595Z,15.60
2019-05-10T16:46:22.760Z,15.50
2019-05-10T16:48:54.635Z,15.50
2019-05-10T16:51:25.684Z,15.50
2019-05-10T16:53:56.489Z,15.60
2019-05-10T16:56:28.891Z,15.60
2019-05-10T16:59:02.441Z,15.50
2019-05-10T17:01:33.767Z,15.10
2019-05-10T17:04:04.743Z,14.80
2019-05-10T17:06:40.293Z,14.80
2019-05-10T17:09:09.306Z,14.90
2019-05-10T17:11:41.501Z,14.70
2019-05-10T17:14:17.990Z,14.90
2019-05-10T17:16:49.579Z,15.20
2019-05-10T17:19:19.076Z,15.40
2019-05-10T17:21:50.047Z,15.30
2019-05-10T17:24:23.907Z,15.00
2019-05-10T17:26:53.378Z,14.90
2019-05-10T17:29:24.190Z,14.50
2019-05-10T17:31:55.037Z,14.40
2019-05-10T17:34:29.534Z,14.40
2019-05-10T17:36:59.820Z,14.50
2019-05-10T17:39:32.341Z,14.20
2019-05-10T17:42:04.964Z,14.20
2019-05-10T17:44:36.267Z,14.00
2019-05-10T17:47:07.311Z,14.00
2019-05-10T17:49:38.213Z,13.80
2019-05-10T17:52:09.087Z,13.70
2019-05-10T17:54:40.933Z,13.80
2019-05-10T17:57:16.788Z,13.70
2019-05-10T17:59:46.852Z,13.60
2019-05-10T18:02:18.160Z,13.60
2019-05-10T18:04:49.846Z,13.40
2019-05-10T18:07:22.443Z,13.40
2019-05-10T18:09:53.545Z,13.30
2019-05-10T18:12:27.240Z,13.20
2019-05-10T18:14:57.789Z,13.30
2019-05-10T18:17:29.318Z,13.20
2019-05-10T18:20:04.001Z,13.10
2019-05-10T18:22:43.471Z,13.00
2019-05-10T18:25:19.574Z,12.90
2019-05-10T18:27:42.886Z,12.80
2019-05-10T18:30:16.078Z,12.80
2019-05-10T18:32:47.693Z,12.90
2019-05-10T18:35:21.071Z,13.00
2019-05-10T18:37:53.605Z,12.80
2019-05-10T18:40:32.179Z,12.90
2019-05-10T18:43:08.778Z,12.70
2019-05-10T18:45:48.239Z,12.70
2019-05-10T18:48:28.035Z,12.50
2019-05-10T18:51:05.320Z,12.40
2019-05-10T18:53:44.042Z,12.50
2019-05-10T18:56:25.331Z,12.20
2019-05-10T18:59:06.895Z,12.10
2019-05-10T19:01:40.662Z,12.10
2019-05-10T19:04:27.252Z,11.90
2019-05-10T19:07:10.122Z,12.00
2019-05-10T19:09:45.677Z,12.00
2019-05-10T19:12:22.662Z,12.00
2019-05-10T19:15:02.406Z,11.80
2019-05-10T19:17:30.132Z,11.70
2019-05-10T19:20:16.110Z,11.60
2019-05-10T19:22:49.399Z,11.60
2019-05-10T19:25:26.017Z,11.60
2019-05-10T19:28:06.556Z,11.60
2019-05-10T19:30:44.977Z,11.30
2019-05-10T19:33:29.874Z,11.40
2019-05-10T19:36:12.545Z,11.40
2019-05-10T19:38:45.037Z,11.30
2019-05-10T19:41:31.807Z,11.20
2019-05-10T19:44:06.950Z,11.20
2019-05-10T19:46:43.389Z,11.30
2019-05-10T19:49:18.652Z,11.10
2019-05-10T19:51:52.814Z,11.10
2019-05-10T19:54:23.952Z,11.10
2019-05-10T19:56:55.681Z,11.00
2019-05-10T19:59:26.899Z,11.10
2019-05-10T20:01:58.129Z,11.10
2019-05-10T20:04:29.151Z,11.00
2019-05-10T20:07:00.846Z,10.80
2019-05-10T20:09:32.698Z,11.00
2019-05-10T20:12:03.867Z,10.90
2019-05-10T20:14:36.530Z,10.80
2019-05-10T20:17:08.099Z,10.60
2019-05-10T20:19:39.914Z,10.60
2019-05-10T20:22:11.981Z,10.60
2019-05-10T20:24:43.287Z,10.60
2019-05-10T20:27:14.703Z,10.80
2019-05-10T20:29:46.098Z,10.80
2019-05-10T20:32:18.327Z,11.00
2019-05-10T20:34:49.302Z,10.70
2019-05-10T20:37:20.702Z,10.60
2019-05-10T20:39:52.025Z,10.70
2019-05-10T20:42:24.428Z,10.60
2019-05-10T20:45:06.781Z,10.50
2019-05-10T20:47:30.400Z,10.40
2019-05-10T20:50:01.886Z,10.20
2019-05-10T20:52:35.908Z,10.20
2019-05-10T20:55:07.839Z,10.10
2019-05-10T20:57:41.767Z,10.00
2019-05-10T21:00:13.494Z,9.90
2019-05-10T21:02:44.804Z,9.80
2019-05-10T21:05:15.971Z,9.90
2019-05-10T21:07:47.670Z,10.00
2019-05-10T21:10:18.627Z,9.90
2019-05-10T21:12:51.206Z,9.80
2019-05-10T21:15:22.402Z,9.80
2019-05-10T21:17:53.324Z,9.80
2019-05-10T21:20:24.872Z,9.80
2019-05-10T21:22:56.248Z,9.80
2019-05-10T21:25:27.682Z,9.60
2019-05-10T21:27:59.178Z,9.40
2019-05-10T21:30:30.539Z,9.30
2019-05-10T21:33:02.534Z,9.30
2019-05-10T21:35:33.676Z,9.10
2019-05-10T21:38:05.335Z,9.10
2019-05-10T21:40:38.022Z,9.00
2019-05-10T21:43:10.254Z,8.90
2019-05-10T21:45:41.001Z,8.80
2019-05-10T21:48:11.903Z,8.70
2019-05-10T21:50:43.089Z,8.70
2019-05-10T21:53:15.571Z,8.40
2019-05-10T21:55:46.853Z,8.20
2019-05-10T21:58:20.204Z,8.20
2019-05-10T22:00:52.583Z,8.20
2019-05-10T22:03:25.515Z,8.20
2019-05-10T22:05:59.722Z,8.10
2019-05-10T22:08:48.007Z,8.00
2019-05-10T22:11:07.188Z,8.10
2019-05-10T22:13:38.193Z,8.20
2019-05-10T22:16:09.378Z,8.20
2019-05-10T22:18:40.256Z,8.20
2019-05-10T22:21:10.940Z,8.20
2019-05-10T22:23:45.197Z,8.20
2019-05-10T22:26:15.907Z,8.20
2019-05-10T22:28:46.816Z,8.10
2019-05-10T22:31:17.625Z,8.20
2019-05-10T22:33:49.825Z,8.30
2019-05-10T22:36:20.620Z,8.30
2019-05-10T22:39:05.789Z,8.20
2019-05-10T22:41:23.914Z,8.20
2019-05-10T22:43:56.436Z,8.20
2019-05-10T22:46:27.067Z,8.10
2019-05-10T22:48:59.030Z,8.10
2019-05-10T22:51:29.837Z,8.10
2019-05-10T22:54:03.850Z,8.10
2019-05-10T22:56:34.733Z,7.90
2019-05-10T22:59:05.605Z,7.90
2019-05-10T23:01:36.278Z,7.90
2019-05-10T23:04:07.342Z,7.90
2019-05-10T23:06:38.210Z,7.90
2019-05-10T23:09:23.299Z,7.90
2019-05-10T23:11:42.194Z,7.90
2019-05-10T23:14:14.074Z,7.90
2019-05-10T23:16:45.282Z,8.00
2019-05-10T23:19:16.941Z,8.00
2019-05-10T23:21:47.701Z,7.90
2019-05-10T23:24:20.193Z,7.90
2019-05-10T23:26:51.186Z,7.80
2019-05-10T23:29:22.124Z,7.90
2019-05-10T23:31:53.575Z,7.80
2019-05-10T23:34:25.640Z,7.60
2019-05-10T23:36:56.473Z,7.60
2019-05-10T23:39:39.652Z,7.50
2019-05-10T23:41:59.656Z,7.40
2019-05-10T23:44:31.922Z,7.20
2019-05-10T23:47:02.609Z,7.30
2019-05-10T23:49:33.391Z,7.50
2019-05-10T23:52:04.418Z,7.40
2019-05-10T23:54:37.097Z,7.30
2019-05-10T23:57:07.981Z,7.20
2019-05-10T23:59:38.800Z,6.90
